EKKA/KRP METAR and TAF weather

Enter ICAO airport designator
Station Type Date Time Source
EKKA METAR 2018/01/22 11:50 UTC NOAA

EKKA 221150Z 12007KT 4000 -SN BKN006 OVC070 01/M00 Q1007 R09R/590195 TEMPO 2500 SCT006


Station Type Date Time Source
EKKA Decoded METAR 2018/01/22 11:50 UTC NOAA

Karup, Denmark (EKKA) 56-18N 009-07E 53M
Jan 22, 2018 - 06:50 AM EST / 2018.01.22 1150 UTC
Wind: from the ESE (120 degrees) at 8 MPH (7 KT):0
Visibility: 2 mile(s):0
Sky conditions: overcast
Weather: light snow
Temperature: 33 F (1 C)
Windchill: 26 F (-3 C):1
Dew Point: 32 F (0 C)
Relative Humidity: 93%
Pressure (altimeter): 29.74 in. Hg (1007 hPa)
ob: EKKA 221150Z 12007KT 4000 -SN BKN006 OVC070 01/M00 Q1007 R09R/590195 TEMPO 2500 SCT006
cycle: 12

Station Type Date Time Source
EKKA TAF 2018/01/22 12:33 UTC NOAA

TAF TAF EKKA 221130Z 2212/2312 14010KT 8000 SCT008 BKN015
TEMPO 2212/2312 2500 BR -SNRASG BKN004 PROB40 2309/2312 FZRA


Example: see airport list